Main page
METAR-TAF:

METAR-TAF

Airports :

Albert – Picardie Airport

Albert, France

latitude: 49-58-21N, longitude: 002-41-29E, elevation: 111 m

Current weather observation

The report was made 27 minutes ago, at 18:30 UTC
Wind 5 kt from the North/Northwest
Temperature 18°C
Humidity 56%
Pressure 1015 hPa
Visibility 10 km or more
no clouds below 1500 m and no cumulonimbus

METAR: LFAQ 211830Z AUTO 34005KT CAVOK 18/09 Q1015

Time: 20:57 (18:57 UTC)

Forecast

The report was made 4 hours and 39 minutes ago, at 14:18 UTC
Forecast valid from 21 at 15 UTC to 21 at 24 UTC
Wind 7 kt from the North/Northeast
Visibility 10 km or more
no clouds below 1500 m and no cumulonimbus

TAF: LFAQ 211418Z 2115/2124 02007KT CAVOK

Weather observations and forecasts of more than 4000 airports (METAR and TAF reports).

The available stations are represented by yellow and red dots on the map.

Hover mouse over dot to see the name of the station.

Then click to see weather observations and forecasts.

To change the map : click on the green buttons with a black cross to zoom in, on the green button with a dash to zoom out, or on the green arrows for adjacent maps.


METAR-TAF: